Sidell, IL

12:39 AM CDT on August 30, 2014 (GMT -0500)
Rantoul | Change Station
CLOSE
Current Station
Airport
Location: Rantoul,
Elevation: 738 ft
Nearby Weather Stations

Elev 738 ft 40.29 °N, 88.15 °W | Updated 29 minutes ago

Clear
Clear
74 °F
Feels Like 74 °F
N
6
Wind Variable Wind from South

Today
High -- | Low -- °F
--% Chance of Precip.
Yesterday
High -- | Low -- °F
Precip. -- in
6:17 AM 7:25 PM
Waxing Crescent, 19% visible
Pressure 29.93 in
Visibility 7.0 miles
Clouds Clear
Dew Point 69 °F
Humidity 87%
Rainfall 0.00 in
Snow Depth Not available.
UV 0 out of 12
Pollen 10.20 out of 12
Air Quality Not available.
Flu Activity Not available.
METAR KTIP 300510Z AUTO 17005KT 7SM CLR 23/21 A2993 RMK AO2 T02310208

More Conditions Fewer Conditions

Pressure 29.93 in
Visibility 7.0 miles
Clouds Clear
Dew Point 69 °F
Humidity 87%
Rainfall 0.00 in
Snow Depth Not available.
UV 0 out of 12
Pollen 10.20 out of 12
Air Quality Not available.
Flu Activity Not available.
METAR KTIP 300510Z AUTO 17005KT 7SM CLR 23/21 A2993 RMK AO2 T02310208

More Conditions Fewer Conditions

10-Day Weather Forecast

Almanac

Astronomy

Aug. 30, 2014 Rise Set
Actual Time 6:17 AM CDT 7:25 PM CDT
Civil Twilight 5:49 AM CDT 7:53 PM CDT
Nautical Twilight 5:16 AM CDT 8:26 PM CDT
Astronomical Twilight 4:41 AM CDT 9:01 PM CDT
Moon 11:04 AM CDT 10:00 PM CDT
Length of Visible Light 14h 04m
Length of Day
13h 08m
Tomorrow will be 2m 30s shorter.
Waxing Crescent, 19% of the Moon is Illuminated
Today
Waxing Crescent
Sep 2
First Quarter
Sep 8
Full
Sep 15
Last Quarter
Sep 24
New

Today's Extremes

State Highs State Lows

Community

WunderPhotos

Upload Photos

1,748,467 photos uploaded!

Nearby

Snow Depth

Station Depth Elevation
No new snow has been reported.

Earthquake Activity

City Distance Mag. Time & Date
No recent earthquake activity has been reported nearby.
Minimum magnitude displayed is 2.5.

Coastal Water Temperatures

Place Temperature
No Stations Reporting

Nearby Weather Stations